sensor_id;sensor_type;location;lat;lon;timestamp;P1;durP1;ratioP1;P2;durP2;ratioP2
75311;SDS011;63906;55.686;37.532;2022-12-11T00:00:27;6.15;;;3.97;;
75311;SDS011;63906;55.686;37.532;2022-12-11T00:05:28;6.00;;;3.58;;
75311;SDS011;63906;55.686;37.532;2022-12-11T00:10:28;5.53;;;2.90;;
75311;SDS011;63906;55.686;37.532;2022-12-11T00:15:29;7.27;;;2.97;;
75311;SDS011;63906;55.686;37.532;2022-12-11T00:20:29;5.32;;;2.65;;
75311;SDS011;63906;55.686;37.532;2022-12-11T00:25:30;5.00;;;3.27;;
75311;SDS011;63906;55.686;37.532;2022-12-11T00:30:30;6.80;;;3.65;;
75311;SDS011;63906;55.686;37.532;2022-12-11T00:35:31;6.80;;;3.85;;
75311;SDS011;63906;55.686;37.532;2022-12-11T00:40:32;13.90;;;6.20;;
75311;SDS011;63906;55.686;37.532;2022-12-11T00:45:35;8.25;;;4.55;;
75311;SDS011;63906;55.686;37.532;2022-12-11T00:50:36;7.03;;;3.90;;
75311;SDS011;63906;55.686;37.532;2022-12-11T00:55:38;6.25;;;3.10;;
75311;SDS011;63906;55.686;37.532;2022-12-11T01:00:40;8.00;;;4.13;;
75311;SDS011;63906;55.686;37.532;2022-12-11T01:05:49;6.57;;;3.70;;
75311;SDS011;63906;55.686;37.532;2022-12-11T01:10:50;7.38;;;3.92;;
75311;SDS011;63906;55.686;37.532;2022-12-11T01:16:04;10.07;;;4.78;;
75311;SDS011;63906;55.686;37.532;2022-12-11T01:21:09;11.10;;;4.90;;
75311;SDS011;63906;55.686;37.532;2022-12-11T01:26:12;6.13;;;3.08;;
75311;SDS011;63906;55.686;37.532;2022-12-11T01:31:14;6.38;;;3.17;;
75311;SDS011;63906;55.686;37.532;2022-12-11T01:36:17;8.70;;;4.45;;
75311;SDS011;63906;55.686;37.532;2022-12-11T01:41:19;7.38;;;3.65;;
75311;SDS011;63906;55.686;37.532;2022-12-11T01:46:20;6.80;;;3.95;;
75311;SDS011;63906;55.686;37.532;2022-12-11T01:51:21;7.25;;;3.63;;
75311;SDS011;63906;55.686;37.532;2022-12-11T01:56:23;8.65;;;3.85;;
75311;SDS011;63906;55.686;37.532;2022-12-11T02:01:27;9.05;;;5.00;;
75311;SDS011;63906;55.686;37.532;2022-12-11T02:06:44;4.15;;;1.73;;
75311;SDS011;63906;55.686;37.532;2022-12-11T02:17:16;20.38;;;9.13;;
75311;SDS011;63906;55.686;37.532;2022-12-11T02:22:35;7.03;;;2.85;;
75311;SDS011;63906;55.686;37.532;2022-12-11T02:27:45;12.00;;;5.30;;
75311;SDS011;63906;55.686;37.532;2022-12-11T02:32:56;8.05;;;3.50;;
75311;SDS011;63906;55.686;37.532;2022-12-11T02:37:59;15.82;;;6.93;;
75311;SDS011;63906;55.686;37.532;2022-12-11T02:43:05;10.82;;;5.07;;
75311;SDS011;63906;55.686;37.532;2022-12-11T02:48:09;11.68;;;5.43;;
75311;SDS011;63906;55.686;37.532;2022-12-11T02:53:11;12.00;;;4.55;;
75311;SDS011;63906;55.686;37.532;2022-12-11T02:58:16;10.18;;;4.47;;
75311;SDS011;63906;55.686;37.532;2022-12-11T03:03:20;10.63;;;4.45;;
75311;SDS011;63906;55.686;37.532;2022-12-11T03:08:21;10.18;;;4.57;;
75311;SDS011;63906;55.686;37.532;2022-12-11T03:13:23;9.73;;;4.03;;
75311;SDS011;63906;55.686;37.532;2022-12-11T03:18:42;10.30;;;4.00;;
75311;SDS011;63906;55.686;37.532;2022-12-11T03:23:48;6.60;;;2.20;;
75311;SDS011;63906;55.686;37.532;2022-12-11T03:29:00;6.03;;;1.90;;
75311;SDS011;63906;55.686;37.532;2022-12-11T03:34:10;10.95;;;3.75;;
75311;SDS011;63906;55.686;37.532;2022-12-11T03:39:24;6.05;;;3.15;;
75311;SDS011;63906;55.686;37.532;2022-12-11T03:44:30;8.23;;;3.17;;
75311;SDS011;63906;55.686;37.532;2022-12-11T03:49:34;8.82;;;3.72;;
75311;SDS011;63906;55.686;37.532;2022-12-11T03:54:39;10.02;;;4.15;;
75311;SDS011;63906;55.686;37.532;2022-12-11T03:59:42;11.23;;;5.22;;
75311;SDS011;63906;55.686;37.532;2022-12-11T04:04:43;10.40;;;4.88;;
75311;SDS011;63906;55.686;37.532;2022-12-11T04:09:43;9.87;;;4.07;;
75311;SDS011;63906;55.686;37.532;2022-12-11T04:14:44;11.10;;;4.30;;
75311;SDS011;63906;55.686;37.532;2022-12-11T04:20:05;8.25;;;4.00;;
75311;SDS011;63906;55.686;37.532;2022-12-11T04:25:25;7.93;;;3.55;;
75311;SDS011;63906;55.686;37.532;2022-12-11T04:30:25;9.87;;;4.50;;
75311;SDS011;63906;55.686;37.532;2022-12-11T04:35:26;10.68;;;4.93;;
75311;SDS011;63906;55.686;37.532;2022-12-11T04:40:27;14.70;;;5.78;;
75311;SDS011;63906;55.686;37.532;2022-12-11T04:45:28;19.70;;;7.32;;
75311;SDS011;63906;55.686;37.532;2022-12-11T04:50:28;6.57;;;3.37;;
75311;SDS011;63906;55.686;37.532;2022-12-11T04:55:29;11.23;;;4.03;;
75311;SDS011;63906;55.686;37.532;2022-12-11T05:00:29;7.93;;;3.37;;
75311;SDS011;63906;55.686;37.532;2022-12-11T05:05:30;7.53;;;4.10;;
75311;SDS011;63906;55.686;37.532;2022-12-11T05:10:30;13.63;;;4.90;;
75311;SDS011;63906;55.686;37.532;2022-12-11T05:15:31;10.70;;;4.50;;
75311;SDS011;63906;55.686;37.532;2022-12-11T05:20:31;8.32;;;2.92;;
75311;SDS011;63906;55.686;37.532;2022-12-11T05:25:32;15.23;;;5.75;;
75311;SDS011;63906;55.686;37.532;2022-12-11T05:30:32;9.53;;;3.63;;
75311;SDS011;63906;55.686;37.532;2022-12-11T05:35:33;7.03;;;3.42;;
75311;SDS011;63906;55.686;37.532;2022-12-11T05:40:33;13.43;;;4.97;;
75311;SDS011;63906;55.686;37.532;2022-12-11T05:45:34;14.90;;;4.53;;
75311;SDS011;63906;55.686;37.532;2022-12-11T05:50:35;11.75;;;5.03;;
75311;SDS011;63906;55.686;37.532;2022-12-11T05:55:35;13.23;;;5.63;;
75311;SDS011;63906;55.686;37.532;2022-12-11T06:00:36;12.47;;;5.07;;
75311;SDS011;63906;55.686;37.532;2022-12-11T06:05:37;9.52;;;3.60;;
75311;SDS011;63906;55.686;37.532;2022-12-11T06:10:43;14.35;;;4.53;;
75311;SDS011;63906;55.686;37.532;2022-12-11T06:15:44;16.55;;;6.80;;
75311;SDS011;63906;55.686;37.532;2022-12-11T06:20:45;19.93;;;6.80;;
75311;SDS011;63906;55.686;37.532;2022-12-11T06:25:45;20.60;;;7.28;;
75311;SDS011;63906;55.686;37.532;2022-12-11T06:30:46;11.10;;;4.70;;
75311;SDS011;63906;55.686;37.532;2022-12-11T06:35:46;17.10;;;6.63;;
75311;SDS011;63906;55.686;37.532;2022-12-11T06:40:57;18.27;;;6.57;;
75311;SDS011;63906;55.686;37.532;2022-12-11T06:45:58;10.70;;;4.75;;
75311;SDS011;63906;55.686;37.532;2022-12-11T06:50:59;14.23;;;6.07;;
75311;SDS011;63906;55.686;37.532;2022-12-11T06:56:05;10.13;;;3.88;;
75311;SDS011;63906;55.686;37.532;2022-12-11T07:01:20;17.08;;;5.75;;
75311;SDS011;63906;55.686;37.532;2022-12-11T07:11:24;22.90;;;8.32;;
75311;SDS011;63906;55.686;37.532;2022-12-11T07:16:25;13.35;;;6.57;;
75311;SDS011;63906;55.686;37.532;2022-12-11T07:21:26;14.32;;;4.28;;
75311;SDS011;63906;55.686;37.532;2022-12-11T07:26:27;10.70;;;4.95;;
75311;SDS011;63906;55.686;37.532;2022-12-11T07:31:28;14.77;;;5.40;;
75311;SDS011;63906;55.686;37.532;2022-12-11T07:36:29;15.55;;;8.27;;
75311;SDS011;63906;55.686;37.532;2022-12-11T07:41:30;20.23;;;9.32;;
75311;SDS011;63906;55.686;37.532;2022-12-11T07:46:31;13.75;;;4.38;;
75311;SDS011;63906;55.686;37.532;2022-12-11T07:51:33;6.82;;;3.88;;
75311;SDS011;63906;55.686;37.532;2022-12-11T07:56:34;14.43;;;6.28;;
75311;SDS011;63906;55.686;37.532;2022-12-11T08:01:36;9.20;;;3.23;;
75311;SDS011;63906;55.686;37.532;2022-12-11T08:06:37;20.30;;;8.98;;
75311;SDS011;63906;55.686;37.532;2022-12-11T08:11:39;14.05;;;4.85;;
75311;SDS011;63906;55.686;37.532;2022-12-11T08:16:39;6.97;;;3.88;;
75311;SDS011;63906;55.686;37.532;2022-12-11T08:21:42;15.85;;;6.88;;
75311;SDS011;63906;55.686;37.532;2022-12-11T08:26:42;13.05;;;4.63;;
75311;SDS011;63906;55.686;37.532;2022-12-11T08:31:43;12.17;;;4.80;;
75311;SDS011;63906;55.686;37.532;2022-12-11T08:36:44;12.82;;;6.72;;
75311;SDS011;63906;55.686;37.532;2022-12-11T08:41:44;13.53;;;4.97;;
75311;SDS011;63906;55.686;37.532;2022-12-11T08:46:45;21.37;;;9.43;;
75311;SDS011;63906;55.686;37.532;2022-12-11T08:51:45;27.95;;;11.43;;
75311;SDS011;63906;55.686;37.532;2022-12-11T08:56:46;8.68;;;4.70;;
75311;SDS011;63906;55.686;37.532;2022-12-11T09:01:46;12.10;;;4.20;;
75311;SDS011;63906;55.686;37.532;2022-12-11T09:06:47;15.38;;;6.30;;
75311;SDS011;63906;55.686;37.532;2022-12-11T09:11:48;11.73;;;4.50;;
75311;SDS011;63906;55.686;37.532;2022-12-11T09:16:48;26.88;;;9.90;;
75311;SDS011;63906;55.686;37.532;2022-12-11T09:21:49;13.83;;;4.67;;
75311;SDS011;63906;55.686;37.532;2022-12-11T09:26:49;20.17;;;8.63;;
75311;SDS011;63906;55.686;37.532;2022-12-11T09:31:50;16.33;;;6.23;;
75311;SDS011;63906;55.686;37.532;2022-12-11T09:36:50;21.53;;;7.93;;
75311;SDS011;63906;55.686;37.532;2022-12-11T10:03:25;21.17;;;7.78;;
75311;SDS011;63906;55.686;37.532;2022-12-11T10:19:02;12.40;;;5.25;;
75311;SDS011;63906;55.686;37.532;2022-12-11T10:24:03;16.13;;;7.38;;
75311;SDS011;63906;55.686;37.532;2022-12-11T10:29:11;16.75;;;7.20;;
75311;SDS011;63906;55.686;37.532;2022-12-11T10:34:17;13.43;;;5.55;;
75311;SDS011;63906;55.686;37.532;2022-12-11T10:39:26;15.88;;;5.97;;
75311;SDS011;63906;55.686;37.532;2022-12-11T10:44:28;14.82;;;6.18;;
75311;SDS011;63906;55.686;37.532;2022-12-11T10:49:31;11.35;;;4.90;;
75311;SDS011;63906;55.686;37.532;2022-12-11T10:54:38;21.30;;;8.88;;
75311;SDS011;63906;55.686;37.532;2022-12-11T10:59:50;15.00;;;6.28;;
75311;SDS011;63906;55.686;37.532;2022-12-11T11:04:52;16.20;;;7.97;;
75311;SDS011;63906;55.686;37.532;2022-12-11T11:10:05;13.70;;;5.20;;
75311;SDS011;63906;55.686;37.532;2022-12-11T11:15:16;9.00;;;4.53;;
75311;SDS011;63906;55.686;37.532;2022-12-11T11:20:19;8.15;;;4.13;;
75311;SDS011;63906;55.686;37.532;2022-12-11T11:25:25;12.05;;;3.95;;
75311;SDS011;63906;55.686;37.532;2022-12-11T11:30:30;14.60;;;4.35;;
75311;SDS011;63906;55.686;37.532;2022-12-11T11:35:34;15.18;;;7.05;;
75311;SDS011;63906;55.686;37.532;2022-12-11T11:40:36;9.23;;;4.20;;
75311;SDS011;63906;55.686;37.532;2022-12-11T11:45:51;13.38;;;5.75;;
75311;SDS011;63906;55.686;37.532;2022-12-11T11:50:54;7.88;;;3.85;;
75311;SDS011;63906;55.686;37.532;2022-12-11T11:56:13;17.58;;;7.28;;
75311;SDS011;63906;55.686;37.532;2022-12-11T12:01:21;14.25;;;6.20;;
75311;SDS011;63906;55.686;37.532;2022-12-11T12:11:52;4.03;;;2.30;;
75311;SDS011;63906;55.686;37.532;2022-12-11T12:22:30;8.40;;;3.45;;
75311;SDS011;63906;55.686;37.532;2022-12-11T12:28:35;9.18;;;4.03;;
75311;SDS011;63906;55.686;37.532;2022-12-11T12:33:25;7.47;;;2.45;;
75311;SDS011;63906;55.686;37.532;2022-12-11T12:38:53;17.38;;;8.05;;
75311;SDS011;63906;55.686;37.532;2022-12-11T12:44:00;9.23;;;4.53;;
75311;SDS011;63906;55.686;37.532;2022-12-11T12:49:15;7.95;;;3.30;;
75311;SDS011;63906;55.686;37.532;2022-12-11T12:54:21;9.30;;;3.92;;
75311;SDS011;63906;55.686;37.532;2022-12-11T12:59:24;4.85;;;2.13;;
75311;SDS011;63906;55.686;37.532;2022-12-11T13:04:36;4.35;;;2.22;;
75311;SDS011;63906;55.686;37.532;2022-12-11T13:09:42;5.80;;;3.08;;
75311;SDS011;63906;55.686;37.532;2022-12-11T13:14:43;5.20;;;3.13;;
75311;SDS011;63906;55.686;37.532;2022-12-11T13:19:43;4.82;;;2.55;;
75311;SDS011;63906;55.686;37.532;2022-12-11T13:24:47;10.00;;;5.15;;
75311;SDS011;63906;55.686;37.532;2022-12-11T13:29:51;2.90;;;1.77;;
75311;SDS011;63906;55.686;37.532;2022-12-11T13:35:05;7.13;;;4.30;;
75311;SDS011;63906;55.686;37.532;2022-12-11T13:40:21;5.28;;;2.38;;
75311;SDS011;63906;55.686;37.532;2022-12-11T13:45:45;8.40;;;3.80;;
75311;SDS011;63906;55.686;37.532;2022-12-11T13:50:49;3.80;;;1.50;;
75311;SDS011;63906;55.686;37.532;2022-12-11T13:55:58;2.67;;;1.13;;
75311;SDS011;63906;55.686;37.532;2022-12-11T14:01:10;4.65;;;2.58;;
75311;SDS011;63906;55.686;37.532;2022-12-11T14:06:15;4.68;;;2.25;;
75311;SDS011;63906;55.686;37.532;2022-12-11T14:11:21;8.05;;;4.68;;
75311;SDS011;63906;55.686;37.532;2022-12-11T14:16:41;10.40;;;5.53;;
75311;SDS011;63906;55.686;37.532;2022-12-11T14:21:41;5.22;;;2.92;;
75311;SDS011;63906;55.686;37.532;2022-12-11T14:26:48;2.03;;;1.55;;
75311;SDS011;63906;55.686;37.532;2022-12-11T14:31:50;9.30;;;5.47;;
75311;SDS011;63906;55.686;37.532;2022-12-11T14:36:51;6.97;;;3.40;;
75311;SDS011;63906;55.686;37.532;2022-12-11T14:47:31;3.80;;;2.17;;
75311;SDS011;63906;55.686;37.532;2022-12-11T14:52:38;11.50;;;5.70;;
75311;SDS011;63906;55.686;37.532;2022-12-11T14:57:43;7.78;;;3.22;;
75311;SDS011;63906;55.686;37.532;2022-12-11T15:02:55;11.77;;;5.70;;
75311;SDS011;63906;55.686;37.532;2022-12-11T15:08:02;5.10;;;2.50;;
75311;SDS011;63906;55.686;37.532;2022-12-11T15:13:03;5.20;;;2.22;;
75311;SDS011;63906;55.686;37.532;2022-12-11T15:18:05;9.15;;;4.25;;
75311;SDS011;63906;55.686;37.532;2022-12-11T15:23:13;4.30;;;1.98;;
75311;SDS011;63906;55.686;37.532;2022-12-11T15:33:26;3.65;;;2.08;;
75311;SDS011;63906;55.686;37.532;2022-12-11T15:38:31;5.82;;;3.03;;
75311;SDS011;63906;55.686;37.532;2022-12-11T15:43:34;4.15;;;2.47;;
75311;SDS011;63906;55.686;37.532;2022-12-11T15:48:36;7.78;;;4.13;;
75311;SDS011;63906;55.686;37.532;2022-12-11T15:53:37;5.30;;;2.70;;
75311;SDS011;63906;55.686;37.532;2022-12-11T15:58:38;3.67;;;2.17;;
75311;SDS011;63906;55.686;37.532;2022-12-11T16:03:38;7.30;;;3.72;;
75311;SDS011;63906;55.686;37.532;2022-12-11T16:08:39;7.50;;;3.27;;
75311;SDS011;63906;55.686;37.532;2022-12-11T16:13:39;6.53;;;2.37;;
75311;SDS011;63906;55.686;37.532;2022-12-11T16:18:40;12.73;;;6.97;;
75311;SDS011;63906;55.686;37.532;2022-12-11T16:23:40;1.77;;;1.20;;
75311;SDS011;63906;55.686;37.532;2022-12-11T16:28:43;5.03;;;3.30;;
75311;SDS011;63906;55.686;37.532;2022-12-11T16:33:47;4.95;;;1.70;;
75311;SDS011;63906;55.686;37.532;2022-12-11T16:38:48;7.57;;;3.97;;
75311;SDS011;63906;55.686;37.532;2022-12-11T16:43:49;3.03;;;1.83;;
75311;SDS011;63906;55.686;37.532;2022-12-11T16:48:50;2.60;;;1.38;;
75311;SDS011;63906;55.686;37.532;2022-12-11T16:53:50;2.77;;;1.47;;
75311;SDS011;63906;55.686;37.532;2022-12-11T16:58:51;3.67;;;2.00;;
75311;SDS011;63906;55.686;37.532;2022-12-11T17:03:51;7.60;;;5.18;;
75311;SDS011;63906;55.686;37.532;2022-12-11T17:08:52;5.30;;;3.60;;
75311;SDS011;63906;55.686;37.532;2022-12-11T17:13:53;6.65;;;3.03;;
75311;SDS011;63906;55.686;37.532;2022-12-11T17:18:56;4.22;;;2.88;;
75311;SDS011;63906;55.686;37.532;2022-12-11T17:23:57;4.57;;;2.33;;
75311;SDS011;63906;55.686;37.532;2022-12-11T17:28:57;5.20;;;2.88;;
75311;SDS011;63906;55.686;37.532;2022-12-11T17:33:58;4.72;;;2.85;;
75311;SDS011;63906;55.686;37.532;2022-12-11T17:39:02;3.17;;;1.80;;
75311;SDS011;63906;55.686;37.532;2022-12-11T17:44:03;4.28;;;3.08;;
75311;SDS011;63906;55.686;37.532;2022-12-11T17:49:03;3.03;;;2.03;;
75311;SDS011;63906;55.686;37.532;2022-12-11T17:54:04;3.40;;;1.98;;
75311;SDS011;63906;55.686;37.532;2022-12-11T17:59:05;6.28;;;3.88;;
75311;SDS011;63906;55.686;37.532;2022-12-11T18:04:06;4.97;;;1.88;;
75311;SDS011;63906;55.686;37.532;2022-12-11T18:09:06;5.80;;;3.95;;
75311;SDS011;63906;55.686;37.532;2022-12-11T18:14:07;0.88;;;0.82;;
75311;SDS011;63906;55.686;37.532;2022-12-11T18:19:08;3.35;;;1.85;;
75311;SDS011;63906;55.686;37.532;2022-12-11T18:24:08;6.28;;;3.83;;
75311;SDS011;63906;55.686;37.532;2022-12-11T18:29:09;3.40;;;2.00;;
75311;SDS011;63906;55.686;37.532;2022-12-11T18:34:10;2.58;;;1.10;;
75311;SDS011;63906;55.686;37.532;2022-12-11T18:39:10;2.87;;;2.23;;
75311;SDS011;63906;55.686;37.532;2022-12-11T18:44:11;2.50;;;2.30;;
75311;SDS011;63906;55.686;37.532;2022-12-11T18:49:11;3.08;;;1.63;;
75311;SDS011;63906;55.686;37.532;2022-12-11T18:54:12;4.03;;;2.60;;
75311;SDS011;63906;55.686;37.532;2022-12-11T18:59:12;1.33;;;1.13;;
75311;SDS011;63906;55.686;37.532;2022-12-11T19:04:13;2.47;;;1.25;;
75311;SDS011;63906;55.686;37.532;2022-12-11T19:09:14;2.50;;;1.45;;
75311;SDS011;63906;55.686;37.532;2022-12-11T19:14:14;3.00;;;2.22;;
75311;SDS011;63906;55.686;37.532;2022-12-11T19:19:16;1.33;;;0.77;;
75311;SDS011;63906;55.686;37.532;2022-12-11T19:24:19;0.70;;;0.50;;
75311;SDS011;63906;55.686;37.532;2022-12-11T19:29:26;1.60;;;0.88;;
75311;SDS011;63906;55.686;37.532;2022-12-11T19:34:32;1.52;;;1.10;;
75311;SDS011;63906;55.686;37.532;2022-12-11T19:39:33;4.50;;;2.45;;
75311;SDS011;63906;55.686;37.532;2022-12-11T19:44:34;2.83;;;1.58;;
75311;SDS011;63906;55.686;37.532;2022-12-11T19:49:34;2.60;;;1.42;;
75311;SDS011;63906;55.686;37.532;2022-12-11T19:54:35;2.20;;;1.05;;
75311;SDS011;63906;55.686;37.532;2022-12-11T19:59:35;1.67;;;0.90;;
75311;SDS011;63906;55.686;37.532;2022-12-11T20:04:36;3.67;;;2.07;;
75311;SDS011;63906;55.686;37.532;2022-12-11T20:09:37;1.00;;;0.55;;
75311;SDS011;63906;55.686;37.532;2022-12-11T20:14:37;3.00;;;2.03;;
75311;SDS011;63906;55.686;37.532;2022-12-11T20:19:38;1.92;;;0.47;;
75311;SDS011;63906;55.686;37.532;2022-12-11T20:24:39;2.50;;;1.23;;
75311;SDS011;63906;55.686;37.532;2022-12-11T20:29:40;1.25;;;0.75;;
75311;SDS011;63906;55.686;37.532;2022-12-11T20:34:41;1.80;;;1.63;;
75311;SDS011;63906;55.686;37.532;2022-12-11T20:39:41;3.00;;;1.83;;
75311;SDS011;63906;55.686;37.532;2022-12-11T20:44:42;3.25;;;1.90;;
75311;SDS011;63906;55.686;37.532;2022-12-11T20:49:42;2.10;;;1.25;;
75311;SDS011;63906;55.686;37.532;2022-12-11T20:54:43;3.70;;;1.45;;
75311;SDS011;63906;55.686;37.532;2022-12-11T20:59:44;5.10;;;2.90;;
75311;SDS011;63906;55.686;37.532;2022-12-11T21:04:44;8.77;;;4.75;;
75311;SDS011;63906;55.686;37.532;2022-12-11T21:09:45;6.43;;;3.83;;
75311;SDS011;63906;55.686;37.532;2022-12-11T21:14:45;8.10;;;3.40;;
75311;SDS011;63906;55.686;37.532;2022-12-11T21:19:46;7.33;;;3.60;;
75311;SDS011;63906;55.686;37.532;2022-12-11T21:24:47;12.63;;;6.30;;
75311;SDS011;63906;55.686;37.532;2022-12-11T21:29:47;6.45;;;4.05;;
75311;SDS011;63906;55.686;37.532;2022-12-11T21:34:51;14.05;;;6.25;;
75311;SDS011;63906;55.686;37.532;2022-12-11T21:39:54;8.82;;;3.85;;
75311;SDS011;63906;55.686;37.532;2022-12-11T21:44:56;16.08;;;6.53;;
75311;SDS011;63906;55.686;37.532;2022-12-11T21:49:56;7.57;;;3.72;;
75311;SDS011;63906;55.686;37.532;2022-12-11T21:54:57;10.65;;;5.32;;
75311;SDS011;63906;55.686;37.532;2022-12-11T21:59:58;7.13;;;3.90;;
75311;SDS011;63906;55.686;37.532;2022-12-11T22:04:59;17.88;;;8.77;;
75311;SDS011;63906;55.686;37.532;2022-12-11T22:09:59;13.30;;;6.18;;
75311;SDS011;63906;55.686;37.532;2022-12-11T22:15:00;30.70;;;17.52;;
75311;SDS011;63906;55.686;37.532;2022-12-11T22:20:00;17.38;;;8.05;;
75311;SDS011;63906;55.686;37.532;2022-12-11T22:25:02;23.33;;;10.82;;
75311;SDS011;63906;55.686;37.532;2022-12-11T22:30:06;13.38;;;6.90;;
75311;SDS011;63906;55.686;37.532;2022-12-11T22:35:07;36.03;;;13.63;;
75311;SDS011;63906;55.686;37.532;2022-12-11T22:40:09;35.28;;;13.77;;
75311;SDS011;63906;55.686;37.532;2022-12-11T22:45:10;24.25;;;9.93;;
75311;SDS011;63906;55.686;37.532;2022-12-11T22:50:11;45.70;;;20.65;;
75311;SDS011;63906;55.686;37.532;2022-12-11T22:55:12;19.55;;;9.20;;
75311;SDS011;63906;55.686;37.532;2022-12-11T23:00:13;17.20;;;8.10;;
75311;SDS011;63906;55.686;37.532;2022-12-11T23:05:14;19.35;;;9.93;;
75311;SDS011;63906;55.686;37.532;2022-12-11T23:10:14;15.60;;;6.50;;
75311;SDS011;63906;55.686;37.532;2022-12-11T23:15:15;21.30;;;9.30;;
75311;SDS011;63906;55.686;37.532;2022-12-11T23:20:16;32.42;;;13.73;;
75311;SDS011;63906;55.686;37.532;2022-12-11T23:25:16;27.23;;;11.35;;
75311;SDS011;63906;55.686;37.532;2022-12-11T23:30:17;19.02;;;9.48;;
75311;SDS011;63906;55.686;37.532;2022-12-11T23:35:17;20.25;;;7.15;;
75311;SDS011;63906;55.686;37.532;2022-12-11T23:40:18;19.35;;;10.00;;
75311;SDS011;63906;55.686;37.532;2022-12-11T23:45:18;22.58;;;9.85;;
75311;SDS011;63906;55.686;37.532;2022-12-11T23:50:20;29.08;;;15.13;;
75311;SDS011;63906;55.686;37.532;2022-12-11T23:55:20;24.70;;;9.15;;
